Time;durP1;ratioP1;P1;durP2;ratioP2;P2;SDS_P1;SDS_P2;PMS_P1;PMS_P2;Temp;Humidity;BMP_temperature;BMP_pressure;BME280_temperature;BME280_humidity;BME280_pressure;Samples;Min_cycle;Max_cycle;Signal;HPM_P1;HPM_P2
2022/11/25 00:01:25;;;;;;;67.05;14.50;;;10.30;94.80;;;;;;5086623;28;20032;-55
2022/11/25 00:03:51;;;;;;;68.70;15.00;;;10.30;94.80;;;;;;5087007;28;20031;-56
2022/11/25 00:06:20;;;;;;;83.68;14.55;;;10.30;94.90;;;;;;5086426;28;20036;-56
2022/11/25 00:08:48;;;;;;;72.45;14.52;;;10.30;94.90;;;;;;5086904;28;20031;-56
2022/11/25 00:11:13;;;;;;;83.38;14.27;;;10.20;94.90;;;;;;5086761;28;20042;-56
2022/11/25 00:13:39;;;;;;;89.47;14.88;;;10.20;95.00;;;;;;5086375;28;20418;-56
2022/11/25 00:16:07;;;;;;;66.55;12.50;;;10.20;95.00;;;;;;5104450;28;20120;-56
2022/11/25 00:18:32;;;;;;;82.70;13.60;;;10.20;94.90;;;;;;5086421;28;20024;-56
2022/11/25 00:20:58;;;;;;;79.13;14.10;;;10.20;94.90;;;;;;5086283;28;20354;-55
2022/11/25 00:23:24;;;;;;;54.85;13.07;;;10.10;94.90;;;;;;5108077;28;20454;-56
2022/11/25 00:25:49;;;;;;;59.40;11.95;;;10.10;94.90;;;;;;5090381;28;20416;-56
2022/11/25 00:28:16;;;;;;;66.72;12.93;;;10.10;95.00;;;;;;5108545;28;20129;-55
2022/11/25 00:30:42;;;;;;;56.97;13.02;;;10.10;95.00;;;;;;5090419;28;20327;-56
2022/11/25 00:33:07;;;;;;;46.58;12.48;;;10.10;95.00;;;;;;5090187;28;20024;-55
2022/11/25 00:35:34;;;;;;;65.47;12.38;;;10.10;95.00;;;;;;5090142;28;20115;-56
2022/11/25 00:37:59;;;;;;;56.22;12.88;;;10.10;95.00;;;;;;5090241;28;20020;-56
2022/11/25 00:40:25;;;;;;;65.53;13.35;;;10.00;95.00;;;;;;5089979;28;20076;-56
2022/11/25 00:45:35;;;;;;;59.10;14.50;;;10.00;95.10;;;;;;5092602;28;20047;-56
2022/11/25 00:48:00;;;;;;;84.63;16.13;;;10.00;95.10;;;;;;5089975;28;20024;-56
2022/11/25 00:50:26;;;;;;;62.00;15.25;;;10.00;95.10;;;;;;5107909;28;20084;-56
2022/11/25 00:52:52;;;;;;;57.78;14.68;;;10.00;95.10;;;;;;5108106;28;20028;-56
2022/11/25 00:55:17;;;;;;;56.00;14.45;;;10.00;95.40;;;;;;5107921;28;20032;-56
2022/11/25 00:57:43;;;;;;;64.47;14.82;;;9.90;95.10;;;;;;5108175;28;20061;-56
2022/11/25 01:00:10;;;;;;;54.50;14.13;;;9.90;95.10;;;;;;5107996;28;20020;-56
2022/11/25 01:02:35;;;;;;;54.92;14.70;;;9.90;95.20;;;;;;5089602;28;20032;-56
2022/11/25 01:05:01;;;;;;;54.58;14.07;;;9.90;95.20;;;;;;5089596;28;20027;-56
2022/11/25 01:07:29;;;;;;;48.33;13.52;;;9.90;95.30;;;;;;5089850;28;20032;-56
2022/11/25 01:09:55;;;;;;;51.40;13.52;;;9.80;95.20;;;;;;5089999;28;20389;-56
2022/11/25 01:12:21;;;;;;;48.55;13.73;;;9.80;95.30;;;;;;5107909;28;20024;-56
2022/11/25 01:14:46;;;;;;;54.13;13.70;;;9.80;95.20;;;;;;5089438;28;20020;-56
2022/11/25 01:17:12;;;;;;;48.90;13.00;;;9.80;95.20;;;;;;5107749;28;20056;-55
2022/11/25 01:19:39;;;;;;;46.30;13.98;;;9.80;95.20;;;;;;5107690;28;20017;-55
2022/11/25 01:22:06;;;;;;;48.65;13.43;;;9.80;95.40;;;;;;5107611;28;20046;-56
2022/11/25 01:24:31;;;;;;;45.10;14.15;;;9.80;95.10;;;;;;5089339;28;20027;-56
2022/11/25 01:26:57;;;;;;;45.00;13.45;;;9.80;95.10;;;;;;5107479;28;20040;-55
2022/11/25 01:29:23;;;;;;;38.08;12.80;;;9.80;95.40;;;;;;5107349;28;20024;-56
2022/11/25 01:31:49;;;;;;;37.08;12.48;;;9.80;95.20;;;;;;5089085;28;20089;-56
2022/11/25 01:34:19;;;;;;;39.78;11.32;;;9.80;95.20;;;;;;5106372;28;20441;-56
2022/11/25 01:36:45;;;;;;;37.55;12.43;;;9.80;95.30;;;;;;5088966;28;20040;-56
2022/11/25 01:39:18;;;;;;;41.15;11.98;;;9.70;95.30;;;;;;5089130;28;20345;-56
2022/11/25 01:41:44;;;;;;;40.92;12.60;;;9.80;95.30;;;;;;5088656;28;20047;-55
2022/11/25 01:44:11;;;;;;;43.33;12.20;;;9.70;95.30;;;;;;5088946;28;20342;-56
2022/11/25 01:46:57;;;;;;;36.35;10.98;;;9.70;95.30;;;;;;5107066;28;20036;-56
2022/11/25 01:49:28;;;;;;;31.30;10.75;;;9.70;95.30;;;;;;5096191;28;20074;-56
2022/11/25 01:52:00;;;;;;;32.40;11.10;;;9.70;95.40;;;;;;5107183;28;20123;-55
2022/11/25 01:54:27;;;;;;;40.45;11.65;;;9.70;95.40;;;;;;5088695;28;20032;-55
2022/11/25 01:56:56;;;;;;;41.28;10.65;;;9.70;95.40;;;;;;5088640;28;20350;-56
2022/11/25 01:59:22;;;;;;;37.05;10.93;;;9.70;95.40;;;;;;5088659;28;20097;-55
2022/11/25 02:01:48;;;;;;;31.92;11.65;;;9.70;95.40;;;;;;5088641;28;20040;-56
2022/11/25 02:04:13;;;;;;;31.83;12.45;;;9.60;95.70;;;;;;5088565;28;20024;-56
2022/11/25 02:06:47;;;;;;;30.30;10.82;;;9.70;95.40;;;;;;5088404;28;20047;-55
2022/11/25 02:09:12;;;;;;;34.38;11.02;;;9.70;95.40;;;;;;5088653;28;20055;-56
2022/11/25 02:11:39;;;;;;;43.38;11.80;;;9.70;95.40;;;;;;5088372;28;20024;-56
2022/11/25 02:14:04;;;;;;;33.47;10.88;;;9.60;95.40;;;;;;5088268;28;20043;-56
2022/11/25 02:16:30;;;;;;;37.25;10.80;;;9.60;95.50;;;;;;5088221;28;20024;-56
2022/11/25 02:18:56;;;;;;;36.88;10.88;;;9.60;95.50;;;;;;5106571;28;20107;-56
2022/11/25 02:21:24;;;;;;;30.73;10.10;;;9.60;95.50;;;;;;5088167;28;20142;-55
2022/11/25 02:23:50;;;;;;;34.25;11.27;;;9.60;95.80;;;;;;5088331;28;20031;-56
2022/11/25 02:26:16;;;;;;;25.15;11.05;;;9.60;95.60;;;;;;5106156;28;20473;-56
2022/11/25 02:28:42;;;;;;;28.80;10.55;;;9.60;95.50;;;;;;5088239;28;20032;-56
2022/11/25 02:31:07;;;;;;;25.35;9.43;;;9.60;95.60;;;;;;5087904;28;20036;-56
2022/11/25 02:33:33;;;;;;;27.25;11.15;;;9.50;95.60;;;;;;5087861;28;20249;-56
2022/11/25 02:36:00;;;;;;;27.48;11.65;;;9.50;95.60;;;;;;5087902;28;20024;-56
2022/11/25 02:38:29;;;;;;;31.95;12.52;;;9.50;95.90;;;;;;5088044;28;20048;-56
2022/11/25 02:41:15;;;;;;;29.95;11.77;;;9.50;95.60;;;;;;5106002;28;20091;-55
2022/11/25 02:43:41;;;;;;;29.08;11.40;;;9.50;95.50;;;;;;5090602;28;20060;-55
2022/11/25 02:46:08;;;;;;;29.55;11.65;;;9.50;95.50;;;;;;5087704;28;20445;-56
2022/11/25 02:48:35;;;;;;;23.65;9.93;;;9.50;95.50;;;;;;5087651;28;20032;-56
2022/11/25 02:51:01;;;;;;;22.67;10.93;;;9.50;95.50;;;;;;5087942;28;20055;-55
2022/11/25 02:53:27;;;;;;;25.23;10.95;;;9.50;95.50;;;;;;5087748;28;20028;-56
2022/11/25 02:55:52;;;;;;;20.65;10.18;;;9.50;95.60;;;;;;5105889;28;20034;-55
2022/11/25 02:58:18;;;;;;;23.92;10.50;;;9.50;95.60;;;;;;5105586;28;20031;-56
2022/11/25 03:00:44;;;;;;;25.88;10.30;;;9.50;95.60;;;;;;5087318;28;20024;-56
2022/11/25 03:03:09;;;;;;;22.10;10.18;;;9.50;95.60;;;;;;5105716;28;20032;-55
2022/11/25 03:05:35;;;;;;;23.85;10.45;;;9.50;95.60;;;;;;5087287;28;20081;-56
2022/11/25 03:08:00;;;;;;;26.70;10.00;;;9.50;95.60;;;;;;5105454;28;20032;-56
2022/11/25 03:10:26;;;;;;;23.00;10.40;;;9.50;95.70;;;;;;5105455;28;20024;-56
2022/11/25 03:12:52;;;;;;;27.90;9.55;;;9.40;95.90;;;;;;5087300;28;20028;-55
2022/11/25 03:15:17;;;;;;;17.80;9.75;;;9.50;95.70;;;;;;5087215;28;20035;-56
2022/11/25 03:17:43;;;;;;;24.50;10.25;;;9.40;95.60;;;;;;5087093;28;20024;-56
2022/11/25 03:20:09;;;;;;;28.85;10.00;;;9.50;95.70;;;;;;5087099;28;20054;-55
2022/11/25 03:22:35;;;;;;;26.90;9.57;;;9.40;95.60;;;;;;5087038;28;20520;-56
2022/11/25 03:25:00;;;;;;;20.92;9.25;;;9.40;95.70;;;;;;5087106;28;20028;-56
2022/11/25 03:27:26;;;;;;;17.60;8.98;;;9.40;95.80;;;;;;5105360;28;20325;-56
2022/11/25 03:29:52;;;;;;;21.55;9.43;;;9.40;95.80;;;;;;5086797;28;20028;-55
2022/11/25 03:32:17;;;;;;;25.08;10.13;;;9.40;95.80;;;;;;5105267;28;20138;-56
2022/11/25 03:34:43;;;;;;;18.17;9.15;;;9.40;95.90;;;;;;5105378;28;20028;-56
2022/11/25 03:37:08;;;;;;;14.68;8.43;;;9.40;95.90;;;;;;5086936;28;20035;-55
2022/11/25 03:39:34;;;;;;;18.98;8.43;;;9.40;95.90;;;;;;5087088;28;20036;-56
2022/11/25 03:41:59;;;;;;;18.02;8.27;;;9.40;96.00;;;;;;5086552;28;20074;-55
2022/11/25 03:44:25;;;;;;;19.30;8.98;;;9.40;96.10;;;;;;5086958;28;20054;-56
2022/11/25 03:46:50;;;;;;;22.40;9.88;;;9.40;96.30;;;;;;5105130;28;20044;-56
2022/11/25 03:49:16;;;;;;;24.35;9.60;;;9.40;96.30;;;;;;5086987;28;20024;-56
2022/11/25 03:51:41;;;;;;;19.60;8.82;;;9.40;96.30;;;;;;5086757;28;20032;-55
2022/11/25 03:54:07;;;;;;;22.92;9.77;;;9.40;96.30;;;;;;5103310;28;20116;-56
2022/11/25 03:56:32;;;;;;;20.38;8.60;;;9.40;96.30;;;;;;5086252;28;20028;-55
2022/11/25 03:58:58;;;;;;;20.38;8.60;;;9.40;96.30;;;;;;5086735;28;20023;-56
2022/11/25 04:01:23;;;;;;;21.08;8.60;;;9.40;96.30;;;;;;5104959;28;20032;-56
2022/11/25 04:03:49;;;;;;;20.27;9.05;;;9.40;96.30;;;;;;5104878;28;20028;-56
2022/11/25 04:06:15;;;;;;;16.98;8.05;;;9.40;96.30;;;;;;5105019;28;20036;-55
2022/11/25 04:08:41;;;;;;;21.83;8.25;;;9.40;96.30;;;;;;5104632;28;20024;-55
2022/11/25 04:11:06;;;;;;;17.33;7.78;;;9.40;96.30;;;;;;5086629;28;20052;-56
2022/11/25 04:13:33;;;;;;;16.90;8.60;;;9.40;96.30;;;;;;5104716;28;20028;-56
2022/11/25 04:15:59;;;;;;;17.00;7.78;;;9.40;96.20;;;;;;5086422;28;20127;-56
2022/11/25 04:18:24;;;;;;;13.85;7.07;;;9.40;96.20;;;;;;5086650;28;20129;-56
2022/11/25 04:20:50;;;;;;;15.98;7.65;;;9.40;96.10;;;;;;5104708;28;20020;-56
2022/11/25 04:23:15;;;;;;;16.70;7.68;;;9.40;96.10;;;;;;5086451;28;20080;-55
2022/11/25 04:25:41;;;;;;;13.32;7.10;;;9.40;96.00;;;;;;5069600;28;20146;-56
2022/11/25 04:28:06;;;;;;;15.48;7.60;;;9.40;96.10;;;;;;5104564;28;20046;-56
2022/11/25 04:30:32;;;;;;;15.52;6.95;;;9.40;96.10;;;;;;5104540;28;20028;-56
2022/11/25 04:32:57;;;;;;;14.18;6.93;;;9.40;96.10;;;;;;5086140;28;20046;-56
2022/11/25 04:35:23;;;;;;;15.20;6.80;;;9.40;96.10;;;;;;5104574;28;20043;-57
2022/11/25 04:37:49;;;;;;;17.38;7.30;;;9.40;96.10;;;;;;5086303;28;20052;-56
2022/11/25 04:40:14;;;;;;;19.77;7.13;;;9.40;96.10;;;;;;5086297;28;20028;-55
2022/11/25 04:42:40;;;;;;;21.80;6.90;;;9.40;96.20;;;;;;5086186;28;20079;-56
2022/11/25 04:45:07;;;;;;;9.40;6.35;;;9.40;96.20;;;;;;5086478;28;20031;-56
2022/11/25 04:47:32;;;;;;;15.13;7.68;;;9.40;96.10;;;;;;5104632;28;20039;-56
2022/11/25 04:49:58;;;;;;;15.95;6.90;;;9.40;96.10;;;;;;5104570;28;20016;-56
2022/11/25 04:52:23;;;;;;;18.33;6.75;;;9.40;96.20;;;;;;5104564;28;20100;-56
2022/11/25 04:54:49;;;;;;;14.43;6.93;;;9.40;96.10;;;;;;5086301;28;20032;-56
2022/11/25 04:57:14;;;;;;;13.23;6.68;;;9.40;96.10;;;;;;5086350;28;20028;-55
2022/11/25 04:59:41;;;;;;;14.35;7.18;;;9.40;96.10;;;;;;5069309;28;20085;-56
2022/11/25 05:02:20;;;;;;;10.50;6.68;;;9.40;96.10;;;;;;5086111;28;20077;-55
2022/11/25 05:04:47;;;;;;;11.70;6.38;;;9.40;96.10;;;;;;5086557;28;20051;-55
2022/11/25 05:07:12;;;;;;;16.92;7.28;;;9.40;96.40;;;;;;5086341;28;20028;-56
2022/11/25 05:09:38;;;;;;;15.95;6.57;;;9.40;96.10;;;;;;5088199;28;20038;-56
2022/11/25 05:12:05;;;;;;;14.88;6.38;;;9.40;96.10;;;;;;5106701;28;20028;-56
2022/11/25 05:14:30;;;;;;;18.92;6.00;;;9.30;96.10;;;;;;5107803;28;20032;-56
2022/11/25 05:16:56;;;;;;;32.10;7.57;;;9.40;96.10;;;;;;5073102;28;20357;-56
2022/11/25 05:19:21;;;;;;;17.65;7.65;;;9.40;96.10;;;;;;5089365;28;20046;-56
2022/11/25 05:21:47;;;;;;;23.65;7.32;;;9.40;96.10;;;;;;5072555;28;20342;-56
2022/11/25 05:24:12;;;;;;;20.77;6.85;;;9.40;96.10;;;;;;5107532;28;20084;-56
2022/11/25 05:26:38;;;;;;;31.42;8.45;;;9.40;96.10;;;;;;5089246;28;20043;-56
2022/11/25 05:29:03;;;;;;;19.15;6.97;;;9.30;96.10;;;;;;5107260;28;20024;-56
2022/11/25 05:31:29;;;;;;;22.67;7.10;;;9.40;96.10;;;;;;5089315;28;20119;-56
2022/11/25 05:33:55;;;;;;;21.45;7.10;;;9.30;96.10;;;;;;5107251;28;20032;-56
2022/11/25 05:36:20;;;;;;;18.85;7.05;;;9.40;96.10;;;;;;5089205;28;20028;-55
2022/11/25 05:38:46;;;;;;;21.20;7.45;;;9.40;96.10;;;;;;5089087;28;20033;-56
2022/11/25 05:41:12;;;;;;;24.90;7.63;;;9.30;96.00;;;;;;5107005;28;20089;-56
2022/11/25 05:43:37;;;;;;;20.48;6.45;;;9.30;96.00;;;;;;5088881;28;20032;-55
2022/11/25 05:46:07;;;;;;;21.05;6.15;;;9.30;96.00;;;;;;5088932;28;20031;-55
2022/11/25 05:48:32;;;;;;;17.50;6.38;;;9.30;96.00;;;;;;5089073;28;20433;-56
2022/11/25 05:51:04;;;;;;;15.18;6.68;;;9.30;96.00;;;;;;5088871;28;20023;-55
2022/11/25 05:53:30;;;;;;;20.60;6.40;;;9.40;96.00;;;;;;5088572;28;20170;-56
2022/11/25 05:55:57;;;;;;;18.38;6.32;;;9.40;96.00;;;;;;5088524;28;20036;-56
2022/11/25 05:58:23;;;;;;;18.58;6.20;;;9.30;96.00;;;;;;5088933;28;20031;-56
2022/11/25 06:00:49;;;;;;;19.23;7.30;;;9.40;96.10;;;;;;5088610;28;20024;-56
2022/11/25 06:03:15;;;;;;;12.88;6.00;;;9.40;96.10;;;;;;5088755;28;20066;-56
2022/11/25 06:05:40;;;;;;;17.90;6.28;;;9.30;96.10;;;;;;5106856;28;20061;-56
2022/11/25 06:08:06;;;;;;;19.27;5.95;;;9.40;96.10;;;;;;5106922;28;20130;-56
2022/11/25 06:10:32;;;;;;;19.55;6.05;;;9.40;96.10;;;;;;5106707;28;20027;-56
2022/11/25 06:12:58;;;;;;;15.23;6.18;;;9.30;96.20;;;;;;5106633;28;20064;-55
2022/11/25 06:15:23;;;;;;;15.68;6.03;;;9.40;96.30;;;;;;5088255;28;20046;-56
2022/11/25 06:17:49;;;;;;;15.80;6.15;;;9.40;96.30;;;;;;5088267;28;20024;-56
2022/11/25 06:20:14;;;;;;;11.40;4.80;;;9.30;96.30;;;;;;5087884;28;20130;-56
2022/11/25 06:22:40;;;;;;;16.60;5.78;;;9.40;96.30;;;;;;5088186;28;20028;-56
2022/11/25 06:25:06;;;;;;;13.82;5.28;;;9.30;96.30;;;;;;5106349;28;20016;-56
2022/11/25 06:27:32;;;;;;;21.13;5.40;;;9.40;96.40;;;;;;5088293;28;20020;-56
2022/11/25 06:29:57;;;;;;;18.10;5.65;;;9.30;96.40;;;;;;5087984;28;20024;-56
2022/11/25 06:32:23;;;;;;;19.63;5.47;;;9.30;96.40;;;;;;5088063;28;20031;-56
2022/11/25 06:34:49;;;;;;;15.05;6.13;;;9.30;96.40;;;;;;5088145;28;20465;-56
2022/11/25 06:37:14;;;;;;;13.10;5.30;;;9.30;96.40;;;;;;5106434;28;20028;-56
2022/11/25 06:39:40;;;;;;;16.33;5.18;;;9.30;96.40;;;;;;5106178;28;20024;-56
2022/11/25 06:42:05;;;;;;;15.43;5.55;;;9.30;96.40;;;;;;5087530;28;20043;-56
2022/11/25 06:44:31;;;;;;;14.07;4.78;;;9.30;96.40;;;;;;5087899;28;20084;-56
2022/11/25 06:46:57;;;;;;;14.75;5.30;;;9.30;96.50;;;;;;5070808;28;20032;-56
2022/11/25 06:49:22;;;;;;;15.75;5.00;;;9.30;96.50;;;;;;5087801;28;20032;-56
2022/11/25 06:51:49;;;;;;;18.95;5.82;;;9.30;96.40;;;;;;5087750;28;20046;-55
2022/11/25 06:54:14;;;;;;;8.82;4.35;;;9.30;96.50;;;;;;5087395;28;20027;-55
2022/11/25 06:56:40;;;;;;;14.77;5.28;;;9.20;96.50;;;;;;5105929;28;20465;-56
2022/11/25 06:59:05;;;;;;;14.80;4.68;;;9.30;96.50;;;;;;5087560;28;20080;-56
2022/11/25 07:01:31;;;;;;;12.13;4.93;;;9.20;96.40;;;;;;5089932;28;20030;-56
2022/11/25 07:04:03;;;;;;;12.57;5.32;;;9.30;96.50;;;;;;5111698;28;20031;-56
2022/11/25 07:06:30;;;;;;;11.25;4.60;;;9.20;96.40;;;;;;5115870;28;20077;-56
2022/11/25 07:08:55;;;;;;;12.07;4.35;;;9.20;96.40;;;;;;5104769;28;20115;-55
2022/11/25 07:11:23;;;;;;;13.75;4.75;;;9.20;96.40;;;;;;5107393;28;20032;-55
2022/11/25 07:13:51;;;;;;;11.10;4.70;;;9.20;96.50;;;;;;5084795;28;20065;-56
2022/11/25 07:16:17;;;;;;;9.82;4.55;;;9.20;96.50;;;;;;5105262;28;20038;-56
2022/11/25 07:18:42;;;;;;;14.57;4.82;;;9.20;96.50;;;;;;5106445;28;20020;-56
2022/11/25 07:21:11;;;;;;;7.70;4.10;;;9.20;96.50;;;;;;5124320;28;20030;-55
2022/11/25 07:23:37;;;;;;;15.68;5.07;;;9.20;96.50;;;;;;5091820;28;20449;-55
2022/11/25 07:26:06;;;;;;;14.95;4.75;;;9.20;96.50;;;;;;5100220;28;20042;-56
2022/11/25 07:28:32;;;;;;;16.50;5.10;;;9.20;96.70;;;;;;5102148;28;20027;-56
2022/11/25 07:31:05;;;;;;;16.23;4.72;;;9.20;96.40;;;;;;5082679;28;20032;-55
2022/11/25 07:33:31;;;;;;;15.27;4.60;;;9.20;96.50;;;;;;5124022;28;20032;-56
2022/11/25 07:36:03;;;;;;;20.02;5.25;;;9.10;96.50;;;;;;5124499;28;20036;-55
2022/11/25 07:38:29;;;;;;;25.27;5.50;;;9.20;96.50;;;;;;5092320;28;20050;-54
2022/11/25 07:40:54;;;;;;;32.67;5.93;;;9.20;96.60;;;;;;5106147;28;20047;-56
2022/11/25 07:43:20;;;;;;;43.83;7.22;;;9.20;96.60;;;;;;5106153;28;20047;-56
2022/11/25 07:45:45;;;;;;;38.60;7.10;;;9.20;96.60;;;;;;5105166;28;20024;-56
2022/11/25 07:48:11;;;;;;;45.30;7.70;;;9.20;96.60;;;;;;5104202;28;20042;-56
2022/11/25 07:50:37;;;;;;;46.38;8.27;;;9.20;96.70;;;;;;5122591;28;20241;-56
2022/11/25 07:53:02;;;;;;;58.13;8.50;;;9.10;96.60;;;;;;5125162;28;20027;-56
2022/11/25 07:55:28;;;;;;;55.42;8.90;;;9.20;96.60;;;;;;5106588;28;20023;-56
2022/11/25 07:57:53;;;;;;;306.75;29.42;;;9.20;96.60;;;;;;5104510;28;20338;-56
2022/11/25 08:00:20;;;;;;;122.28;16.48;;;9.20;96.70;;;;;;5105313;28;20012;-56
2022/11/25 08:02:45;;;;;;;68.03;13.25;;;9.20;96.90;;;;;;5106449;28;20027;-55
2022/11/25 08:05:11;;;;;;;74.47;11.85;;;9.20;96.80;;;;;;5105915;28;20049;-56
2022/11/25 08:07:36;;;;;;;82.10;12.75;;;9.20;96.70;;;;;;5123492;28;20024;-56
2022/11/25 08:10:02;;;;;;;106.38;13.80;;;9.20;96.70;;;;;;5106253;28;20028;-56
2022/11/25 08:12:30;;;;;;;59.28;11.60;;;9.20;96.70;;;;;;5106373;28;20123;-56
2022/11/25 08:14:55;;;;;;;78.38;12.38;;;9.20;96.70;;;;;;5123393;28;20049;-56
2022/11/25 08:17:21;;;;;;;80.15;11.52;;;9.20;96.70;;;;;;5123952;28;20091;-56
2022/11/25 08:19:46;;;;;;;86.22;10.90;;;9.20;96.70;;;;;;5123994;28;20028;-56
2022/11/25 08:22:12;;;;;;;81.35;12.38;;;9.20;96.80;;;;;;5124946;28;20031;-56
2022/11/25 08:24:37;;;;;;;66.30;11.57;;;9.30;96.80;;;;;;5122446;28;20036;-56
2022/11/25 08:27:03;;;;;;;85.55;11.98;;;9.30;96.70;;;;;;5106294;28;20032;-56
2022/11/25 08:29:29;;;;;;;78.22;11.82;;;9.20;96.60;;;;;;5104191;28;20030;-56
2022/11/25 08:31:55;;;;;;;103.78;13.50;;;9.20;96.60;;;;;;5105836;28;20039;-55
2022/11/25 08:34:22;;;;;;;80.70;11.80;;;9.30;96.70;;;;;;5105442;28;20066;-55
2022/11/25 08:36:47;;;;;;;102.00;12.65;;;9.30;96.70;;;;;;5103879;28;20491;-56
2022/11/25 08:39:13;;;;;;;111.85;13.63;;;9.30;96.70;;;;;;5105958;28;20023;-56
2022/11/25 08:41:38;;;;;;;81.95;13.05;;;9.30;96.70;;;;;;5105995;28;20096;-55
2022/11/25 08:44:06;;;;;;;195.35;20.40;;;9.30;96.70;;;;;;5127683;28;20111;-56
2022/11/25 08:46:34;;;;;;;224.23;22.88;;;9.30;96.90;;;;;;5109969;28;20048;-56
2022/11/25 08:49:00;;;;;;;231.23;24.38;;;9.30;97.10;;;;;;5109208;28;20027;-56
2022/11/25 08:51:28;;;;;;;213.48;23.48;;;9.30;97.20;;;;;;5110102;28;20042;-56
2022/11/25 08:53:53;;;;;;;129.00;17.05;;;9.40;97.30;;;;;;5110020;28;20442;-56
2022/11/25 08:56:20;;;;;;;110.07;15.35;;;9.40;97.20;;;;;;5109641;28;20050;-56
2022/11/25 08:58:45;;;;;;;102.03;15.05;;;9.40;96.90;;;;;;5128249;28;20433;-56
2022/11/25 09:01:11;;;;;;;127.72;16.25;;;9.40;96.80;;;;;;5109923;28;20062;-56
2022/11/25 09:03:38;;;;;;;116.28;16.67;;;9.40;96.90;;;;;;5109756;28;20031;-56
2022/11/25 09:06:04;;;;;;;136.57;18.10;;;9.40;97.00;;;;;;5109753;28;20031;-56
2022/11/25 09:08:30;;;;;;;132.93;18.15;;;9.40;97.00;;;;;;5109872;28;20070;-56
2022/11/25 09:10:56;;;;;;;106.70;16.58;;;9.40;97.00;;;;;;5109779;28;20121;-56
2022/11/25 09:13:22;;;;;;;114.43;15.20;;;9.50;97.00;;;;;;5127905;28;20028;-56
2022/11/25 09:15:47;;;;;;;127.13;16.52;;;9.50;97.10;;;;;;5127917;28;20087;-55
2022/11/25 09:18:14;;;;;;;181.07;21.38;;;9.50;97.20;;;;;;5109630;28;20028;-58
2022/11/25 09:20:40;;;;;;;160.80;19.40;;;9.50;97.20;;;;;;5127481;28;20032;-59
2022/11/25 09:23:06;;;;;;;155.77;20.17;;;9.60;97.20;;;;;;5127797;28;20019;-58
2022/11/25 09:25:32;;;;;;;167.02;19.45;;;9.60;97.20;;;;;;5109146;28;20028;-58
2022/11/25 09:27:57;;;;;;;194.65;20.40;;;9.60;97.30;;;;;;5087043;28;20048;-58
2022/11/25 09:30:23;;;;;;;167.68;21.15;;;9.60;97.30;;;;;;5124880;28;20073;-58
2022/11/25 09:32:49;;;;;;;184.90;22.23;;;9.60;97.40;;;;;;5103836;28;20036;-58
2022/11/25 09:35:15;;;;;;;175.90;20.45;;;9.60;97.40;;;;;;5102421;28;20031;-58
2022/11/25 09:37:41;;;;;;;173.65;20.15;;;9.70;97.40;;;;;;5107458;28;20127;-58
2022/11/25 09:40:07;;;;;;;146.63;19.02;;;9.70;97.20;;;;;;5091307;28;20229;-58
2022/11/25 09:48:39;;;;;;;256.63;29.27;;;9.80;97.10;;;;;;5113622;28;20080;-58
2022/11/25 09:51:23;;;;;;;180.77;20.33;;;9.80;97.20;;;;;;5119173;28;20110;-59
2022/11/25 09:54:20;;;;;;;140.73;20.00;;;9.80;97.30;;;;;;5089255;28;20024;-59
2022/11/25 09:57:07;;;;;;;148.55;19.00;;;9.90;97.30;;;;;;5101465;28;20087;-58
2022/11/25 09:59:43;;;;;;;154.68;20.17;;;9.90;97.30;;;;;;5125239;28;20057;-58
2022/11/25 10:02:19;;;;;;;135.80;18.92;;;9.90;97.30;;;;;;5093516;28;20081;-58
2022/11/25 10:04:49;;;;;;;;;;;9.90;97.30;;;;;;5106191;28;20046;-59
2022/11/25 10:07:38;;;;;;;149.27;19.98;;;9.90;97.20;;;;;;5110540;28;19916;-58
2022/11/25 10:10:04;;;;;;;145.88;17.63;;;10.00;97.20;;;;;;5096682;28;20163;-59
2022/11/25 10:12:33;;;;;;;152.65;20.88;;;10.00;97.30;;;;;;5084091;28;20027;-59
2022/11/25 10:15:00;;;;;;;165.13;20.85;;;10.00;97.20;;;;;;5079056;28;20053;-59
2022/11/25 10:17:44;;;;;;;182.60;21.23;;;10.00;97.20;;;;;;5086534;28;20043;-59
2022/11/25 10:20:10;;;;;;;143.70;18.55;;;10.10;97.20;;;;;;5116318;28;20012;-59
2022/11/25 10:22:37;;;;;;;152.65;17.88;;;10.10;97.20;;;;;;5113935;28;20046;-59
2022/11/25 10:25:19;;;;;;;135.02;17.85;;;10.10;97.50;;;;;;5071748;28;20040;-59
2022/11/25 10:27:55;;;;;;;138.40;17.15;;;10.10;97.20;;;;;;5120228;28;20036;-59
2022/11/25 10:30:33;;;;;;;118.85;17.95;;;10.20;97.30;;;;;;5087553;28;20024;-58
2022/11/25 10:33:28;;;;;;;163.85;19.02;;;10.20;97.30;;;;;;5123984;28;20020;-59
2022/11/25 10:35:59;;;;;;;151.32;18.85;;;10.20;97.20;;;;;;5105262;28;20036;-59
2022/11/25 10:38:38;;;;;;;145.82;19.98;;;10.20;97.20;;;;;;5089319;28;20096;-59
2022/11/25 10:41:04;;;;;;;139.80;18.33;;;10.30;97.30;;;;;;5104442;28;20023;-59
2022/11/25 10:43:30;;;;;;;170.90;20.65;;;10.20;97.30;;;;;;5104944;28;20050;-59
2022/11/25 10:46:15;;;;;;;165.82;17.77;;;10.30;97.40;;;;;;5088859;28;20032;-59
2022/11/25 10:49:13;;;;;;;122.35;16.75;;;10.30;97.50;;;;;;5098174;28;20063;-59
2022/11/25 10:51:44;;;;;;;140.90;18.08;;;10.30;97.80;;;;;;5091088;28;20040;-59
2022/11/25 10:54:21;;;;;;;134.55;17.67;;;10.40;97.80;;;;;;5102477;28;20358;-59
2022/11/25 10:56:57;;;;;;;152.63;18.77;;;10.40;97.80;;;;;;5088981;28;20092;-59
2022/11/25 10:59:36;;;;;;;178.60;20.52;;;10.40;97.60;;;;;;5123881;28;20077;-59
2022/11/25 11:02:14;;;;;;;165.15;19.95;;;10.40;97.60;;;;;;5101702;28;20027;-59
2022/11/25 11:05:00;;;;;;;146.27;18.08;;;10.40;97.70;;;;;;5087359;28;20157;-59
2022/11/25 11:07:28;;;;;;;175.25;20.40;;;10.50;98.20;;;;;;5101126;28;20027;-59
2022/11/25 11:09:53;;;;;;;128.95;17.20;;;10.50;98.40;;;;;;5103700;28;20050;-59
2022/11/25 11:12:25;;;;;;;135.75;19.17;;;10.50;98.40;;;;;;5087762;28;20043;-59
2022/11/25 11:14:52;;;;;;;119.97;16.33;;;10.50;98.40;;;;;;5105099;28;20070;-59
2022/11/25 11:17:32;;;;;;;134.50;17.08;;;10.60;98.50;;;;;;5104865;28;20461;-59
2022/11/25 11:20:24;;;;;;;136.18;16.95;;;10.60;98.60;;;;;;5102088;28;20083;-59
2022/11/25 11:23:11;;;;;;;105.72;15.38;;;10.60;98.60;;;;;;5088220;28;20031;-59
2022/11/25 11:25:38;;;;;;;106.90;16.10;;;10.60;98.80;;;;;;5102425;28;20138;-60
2022/11/25 11:28:27;;;;;;;103.40;16.02;;;10.70;98.80;;;;;;5079018;28;20027;-59
2022/11/25 11:31:25;;;;;;;98.97;16.38;;;10.70;98.90;;;;;;5102888;28;20043;-59
2022/11/25 11:33:57;;;;;;;113.80;15.98;;;10.70;98.80;;;;;;5084109;28;20020;-59
2022/11/25 11:36:41;;;;;;;124.78;15.65;;;10.70;98.70;;;;;;5067264;28;20031;-58
2022/11/25 11:39:22;;;;;;;109.07;15.07;;;10.70;98.70;;;;;;5101544;28;20056;-59
2022/11/25 11:41:53;;;;;;;137.88;16.58;;;10.80;98.70;;;;;;5118548;28;20039;-59
2022/11/25 11:44:46;;;;;;;138.10;16.25;;;10.80;98.60;;;;;;5102194;28;20024;-55
2022/11/25 11:47:27;;;;;;;102.88;14.50;;;10.80;98.60;;;;;;5082521;28;20044;-55
2022/11/25 11:50:01;;;;;;;96.90;14.43;;;10.80;98.40;;;;;;5104070;28;20023;-55
2022/11/25 11:52:27;;;;;;;119.18;14.60;;;10.80;98.40;;;;;;5121272;28;20039;-56
2022/11/25 11:54:53;;;;;;;91.38;13.95;;;10.90;98.30;;;;;;5118329;28;20032;-55
2022/11/25 11:57:26;;;;;;;116.57;15.70;;;10.90;98.10;;;;;;5079979;28;20015;-55
2022/11/25 11:59:53;;;;;;;96.78;14.75;;;10.90;98.10;;;;;;5107554;28;20079;-56
2022/11/25 12:02:18;;;;;;;110.60;12.98;;;10.90;98.00;;;;;;5084795;28;20089;-55
2022/11/25 12:04:52;;;;;;;85.35;12.77;;;11.00;98.00;;;;;;5118062;28;20121;-55
2022/11/25 12:07:46;;;;;;;126.95;15.55;;;11.00;98.00;;;;;;5104871;28;20031;-55
2022/11/25 12:10:14;;;;;;;85.95;13.43;;;11.00;98.00;;;;;;5095395;28;20036;-55
2022/11/25 12:12:48;;;;;;;110.88;13.98;;;11.00;97.90;;;;;;5120446;28;20038;-55
2022/11/25 12:15:44;;;;;;;81.60;11.80;;;11.10;97.90;;;;;;5089887;28;20077;-55
2022/11/25 12:18:33;;;;;;;65.07;9.57;;;11.10;97.90;;;;;;5102599;28;20024;-55
2022/11/25 12:21:04;;;;;;;94.70;12.52;;;11.10;97.60;;;;;;5106220;28;20024;-55
2022/11/25 12:23:43;;;;;;;70.20;11.57;;;11.10;97.60;;;;;;5101655;28;20043;-56
2022/11/25 12:26:16;;;;;;;75.32;11.88;;;11.10;97.80;;;;;;5104653;28;20027;-55
2022/11/25 12:28:51;;;;;;;83.72;13.90;;;11.20;97.80;;;;;;5074822;28;20024;-56
2022/11/25 12:31:29;;;;;;;73.85;11.38;;;11.20;97.80;;;;;;5105047;28;20028;-55
2022/11/25 12:34:03;;;;;;;95.80;11.55;;;11.20;97.90;;;;;;5110097;28;20085;-55
2022/11/25 12:36:39;;;;;;;68.97;11.18;;;11.20;97.80;;;;;;5110101;28;20051;-55
2022/11/25 12:39:08;;;;;;;52.10;9.75;;;11.20;97.80;;;;;;5087026;28;20016;-56
2022/11/25 12:41:41;;;;;;;72.28;10.30;;;11.20;97.70;;;;;;5109227;28;20559;-55
2022/11/25 12:44:20;;;;;;;79.38;12.60;;;11.30;97.70;;;;;;5123737;28;20024;-55
2022/11/25 12:46:53;;;;;;;90.07;12.02;;;11.30;97.70;;;;;;5105568;28;20032;-56
2022/11/25 12:49:19;;;;;;;79.57;11.63;;;11.30;97.80;;;;;;5124857;28;20032;-56
2022/11/25 12:51:55;;;;;;;80.88;12.32;;;11.30;97.80;;;;;;5106859;28;20043;-56